航空気象通報

ウインドサーファーのための航空気象通報による風予報です。

6/17-6/19の航空気象通報

2017年06月18日 00時16分56秒 | TAF
羽田空港
TAF RJTT 171105Z 1712/1818 10012KT 9999 FEW020 SCT030
BECMG 1712/1714 03012KT
日本時間17日21時:180度から12ノットの風
21-23時:風が変化
23時-19日03時:030度から12ノットの風


静岡空港
TAF RJNS 171105Z 1712/1818 04004KT 9999 FEW020
BECMG 1812/1815 28005KT
日本時間17日21時-18日21時:040度から4ノットの風
21-24時:風が変化
19日00-03時:280度から5ノットの風


福岡空港
TAF RJFF 171105Z 1712/1818 15004KT 9999 FEW040
BECMG 1722/1800 32010KT
BECMG 1812/1815 16003KT
日本時間17日21時-18日07時:150度から4ノットの風
07-09時:風が変化
09-21時:320度から10ノットの風
21-24時:風が変化
19日00-03時:160度から3ノットの風


那覇空港
TAF ROAH 171106Z 1712/1818 04010KT 9999 FEW010 BKN030
BECMG 1806/1809 12006KT
日本時間17日12時-18日15時:040度から10ノットの風
15-18時:風が変化
18時-19日03時:120度から6ノットの風


石垣空港
TAF ROIG 171109Z 1712/1818 06010KT 9999 FEW008 BKN020
BECMG 1803/1806 15010KT
TEMPO 1809/1812 4000 TSRA FEW005 BKN008 BKN015 FEW020CB
日本時間17日21時-18日12時:060度から10ノットの風
12-15時:風が変化
15時-19日03時:150度から10ノットの風

但し、18日18-21時の間:ときどき

マウイのカフルイ空港
PHOG 171127Z 1712/1812 06007KT P6SM FEW025 SCT250
FM172000 06014G24KT P6SM FEW025 SCT050
FM180500 06010KT P6SM FEW040 AMD LTD TO VIS AND WIND TIL 171600
ハワイ時間17日02-10時:060度から7ノットの風
10-19時:060度から14ノット、突風24ノット
19時-18日02時:060度から10ノットの風


サイパン空港
TAF PGSN 171120Z 1712/1812 09010KT P6SM VCSH SCT020
マリアナ時間17日22時-18日22時:090度から10ノットの風

ジャンル:
お天気
コメント   この記事についてブログを書く
この記事をはてなブックマークに追加
« 6/16-6/18の航空気象通報 | トップ | 6/18-6/20の航空気象通報 »
最近の画像もっと見る

コメントを投稿

ブログ作成者から承認されるまでコメントは反映されません。

TAF」カテゴリの最新記事

トラックバック

この記事のトラックバック  Ping-URL
ブログ作成者から承認されるまでトラックバックは反映されません。
  • 30日以上前の記事に対するトラックバックは受け取らないよう設定されております。
  • 送信元の記事内容が半角英数のみのトラックバックは受け取らないよう設定されております。
  • このブログへのリンクがない記事からのトラックバックは受け取らないよう設定されております。
  • ※ブログ管理者のみ、編集画面で設定の変更が可能です。